Terminal Aerodrome Forecast
Issued by NWS Sterling, VA

Current Version | Previous Version | Graphics & Text | Print | Product List | Glossary On
Versions: 1 2 3 4 5 6 7 8 9 10 11 12 13 14 15 16 17 18 19 20 21 22
000
FTUS41 KLWX 231726
TAFIAD
TAF
KIAD 231726Z 2318/2424 VRB03KT P6SM FEW200 FEW250
     FM241000 36007KT P6SM FEW100 SCT250
     FM241400 01008KT P6SM SCT060 BKN080
     FM242000 01007KT P6SM FEW040 SCT050=

USA.gov is the U.S. government's official web portal to all federal, state and local government web resources and services.